createdAt,value
2019-05-26T00:00:11.179Z,62.80
2019-05-26T00:01:18.751Z,62.80
2019-05-26T00:02:26.753Z,62.80
2019-05-26T00:03:34.023Z,62.80
2019-05-26T00:04:42.044Z,62.80
2019-05-26T00:05:49.344Z,63.00
2019-05-26T00:06:57.439Z,63.10
2019-05-26T00:08:04.755Z,62.90
2019-05-26T00:09:12.807Z,62.90
2019-05-26T00:10:20.099Z,62.90
2019-05-26T00:11:28.086Z,62.90
2019-05-26T00:12:36.900Z,62.90
2019-05-26T00:13:44.890Z,63.00
2019-05-26T00:14:52.091Z,63.00
2019-05-26T00:16:00.093Z,63.10
2019-05-26T00:17:07.321Z,63.20
2019-05-26T00:18:15.341Z,63.20
2019-05-26T00:19:22.565Z,63.20
2019-05-26T00:20:30.554Z,63.30
2019-05-26T00:21:37.779Z,63.30
2019-05-26T00:22:45.800Z,63.30
2019-05-26T00:23:56.148Z,63.10
2019-05-26T00:25:02.698Z,63.30
2019-05-26T00:26:10.073Z,63.30
2019-05-26T00:27:18.139Z,63.20
2019-05-26T00:28:25.366Z,63.30
2019-05-26T00:29:33.355Z,63.20
2019-05-26T00:30:40.555Z,63.30
2019-05-26T00:31:48.724Z,63.30
2019-05-26T00:32:56.008Z,63.30
2019-05-26T00:34:04.089Z,63.30
2019-05-26T00:35:12.965Z,63.40
2019-05-26T00:36:20.957Z,63.40
2019-05-26T00:37:29.442Z,63.30
2019-05-26T00:38:37.434Z,63.20
2019-05-26T00:39:44.658Z,63.10
2019-05-26T00:40:52.671Z,63.30
2019-05-26T00:41:59.977Z,63.20
2019-05-26T00:43:07.973Z,63.10
2019-05-26T00:44:15.196Z,63.30
2019-05-26T00:45:23.307Z,63.10
2019-05-26T00:46:30.506Z,63.20
2019-05-26T00:47:38.617Z,63.20
2019-05-26T00:48:46.171Z,63.30
2019-05-26T00:49:54.150Z,63.20
2019-05-26T00:51:01.372Z,63.40
2019-05-26T00:52:09.378Z,63.40
2019-05-26T00:53:16.590Z,64.30
2019-05-26T00:54:24.700Z,63.60
2019-05-26T00:55:32.090Z,63.70
2019-05-26T00:56:40.101Z,63.70
2019-05-26T00:57:47.292Z,63.70
2019-05-26T00:58:55.317Z,63.80
2019-05-26T01:00:02.510Z,63.80
2019-05-26T01:01:10.603Z,63.80
2019-05-26T01:02:17.951Z,63.80
2019-05-26T01:03:25.941Z,63.80
2019-05-26T01:04:33.152Z,63.80
2019-05-26T01:05:41.342Z,63.90
2019-05-26T01:06:49.633Z,64.00
2019-05-26T01:08:06.361Z,64.10
2019-05-26T01:09:08.971Z,64.10
2019-05-26T01:10:17.066Z,63.90
2019-05-26T01:11:24.276Z,63.90
2019-05-26T01:12:32.269Z,64.00
2019-05-26T01:13:39.496Z,63.80
2019-05-26T01:14:47.558Z,63.70
2019-05-26T01:15:54.785Z,63.40
2019-05-26T01:17:02.806Z,63.30
2019-05-26T01:18:10.017Z,63.20
2019-05-26T01:19:18.045Z,63.30
2019-05-26T01:20:26.298Z,63.60
2019-05-26T01:21:34.294Z,63.70
2019-05-26T01:22:41.500Z,63.70
2019-05-26T01:23:49.507Z,63.80
2019-05-26T01:24:56.747Z,63.60
2019-05-26T01:26:04.934Z,63.70
2019-05-26T01:27:12.143Z,63.90
2019-05-26T01:28:20.153Z,63.90
2019-05-26T01:29:27.375Z,63.70
2019-05-26T01:30:40.246Z,63.90
2019-05-26T01:31:47.468Z,63.90
2019-05-26T01:32:55.758Z,63.80
2019-05-26T01:34:02.974Z,63.70
2019-05-26T01:35:12.386Z,63.80
2019-05-26T01:36:19.805Z,63.70
2019-05-26T01:37:28.204Z,63.80
2019-05-26T01:38:35.893Z,63.80
2019-05-26T01:39:43.887Z,63.70
2019-05-26T01:40:51.079Z,63.60
2019-05-26T01:41:59.099Z,63.60
2019-05-26T01:43:06.389Z,63.50
2019-05-26T01:44:14.376Z,63.60
2019-05-26T01:45:21.574Z,63.70
2019-05-26T01:46:29.576Z,63.00
2019-05-26T01:47:36.817Z,63.80
2019-05-26T01:48:44.852Z,63.60
2019-05-26T01:49:52.183Z,63.70
2019-05-26T01:51:00.206Z,63.80
2019-05-26T01:52:07.430Z,63.70
2019-05-26T01:53:15.409Z,63.60
2019-05-26T01:54:22.631Z,63.70
2019-05-26T01:55:30.607Z,63.60
2019-05-26T01:56:37.892Z,63.60
2019-05-26T01:57:45.897Z,63.60
2019-05-26T01:58:53.123Z,63.60
2019-05-26T02:00:01.144Z,63.60
2019-05-26T02:01:09.945Z,63.50
2019-05-26T02:02:17.939Z,63.50
2019-05-26T02:03:25.147Z,63.50
2019-05-26T02:04:33.139Z,63.40
2019-05-26T02:05:40.422Z,63.50
2019-05-26T02:06:48.417Z,63.40
2019-05-26T02:07:55.623Z,63.30
2019-05-26T02:09:06.359Z,63.20
2019-05-26T02:10:13.690Z,63.10
2019-05-26T02:11:21.684Z,63.00
2019-05-26T02:12:28.863Z,62.90
2019-05-26T02:13:36.870Z,62.80
2019-05-26T02:14:44.054Z,62.70
2019-05-26T02:15:53.123Z,62.60
2019-05-26T02:17:00.317Z,62.60
2019-05-26T02:18:08.741Z,62.60
2019-05-26T02:19:15.957Z,62.60
2019-05-26T02:20:24.679Z,62.40
2019-05-26T02:21:31.944Z,62.40
2019-05-26T02:22:39.885Z,62.50
2019-05-26T02:23:47.074Z,62.60
2019-05-26T02:24:55.065Z,62.60
2019-05-26T02:26:02.323Z,62.50
2019-05-26T02:27:10.312Z,62.40
2019-05-26T02:28:17.523Z,62.30
2019-05-26T02:29:25.518Z,62.20
2019-05-26T02:30:32.724Z,63.00
2019-05-26T02:31:40.745Z,62.10
2019-05-26T02:32:47.955Z,62.00
2019-05-26T02:33:55.961Z,62.00
2019-05-26T02:35:03.338Z,62.20
2019-05-26T02:36:11.367Z,62.30
2019-05-26T02:37:18.582Z,62.30
2019-05-26T02:38:26.861Z,62.10
2019-05-26T02:39:34.103Z,62.10
2019-05-26T02:40:42.089Z,62.10
2019-05-26T02:41:49.300Z,62.20
2019-05-26T02:42:57.293Z,62.20
2019-05-26T02:44:04.921Z,62.10
2019-05-26T02:45:16.444Z,62.10
2019-05-26T02:46:23.663Z,62.10
2019-05-26T02:47:31.654Z,62.10
2019-05-26T02:48:38.878Z,62.10
2019-05-26T02:49:46.940Z,62.10
2019-05-26T02:50:54.172Z,62.10
2019-05-26T02:52:02.162Z,62.00
2019-05-26T02:53:09.389Z,61.80
2019-05-26T02:54:17.392Z,61.90
2019-05-26T02:55:24.835Z,62.10
2019-05-26T02:56:33.613Z,62.20
2019-05-26T02:57:40.826Z,62.00
2019-05-26T02:58:49.895Z,62.00
2019-05-26T02:59:57.111Z,62.00
2019-05-26T03:01:05.335Z,61.90
2019-05-26T03:02:12.547Z,61.80
2019-05-26T03:03:20.545Z,62.60
2019-05-26T03:04:27.935Z,61.70
2019-05-26T03:05:36.236Z,61.70
2019-05-26T03:06:44.256Z,61.70
2019-05-26T03:07:55.140Z,61.60
2019-05-26T03:09:21.789Z,61.70
2019-05-26T03:10:16.844Z,61.80
2019-05-26T03:11:28.115Z,61.60
2019-05-26T03:12:41.439Z,61.50
2019-05-26T03:13:52.545Z,61.40
2019-05-26T03:15:04.134Z,61.30
2019-05-26T03:16:14.018Z,61.00
2019-05-26T03:17:24.574Z,60.90
2019-05-26T03:18:35.329Z,60.70
2019-05-26T03:19:45.549Z,60.80
2019-05-26T03:20:55.672Z,60.90
2019-05-26T03:22:05.730Z,61.00
2019-05-26T03:23:13.062Z,61.10
2019-05-26T03:24:24.143Z,61.10
2019-05-26T03:25:35.418Z,61.20
2019-05-26T03:26:43.461Z,61.20
2019-05-26T03:27:50.685Z,61.20
2019-05-26T03:28:58.699Z,61.40
2019-05-26T03:30:06.749Z,61.30
2019-05-26T03:31:14.712Z,61.30
2019-05-26T03:32:21.925Z,61.20
2019-05-26T03:33:30.084Z,61.20
2019-05-26T03:34:37.292Z,61.20
2019-05-26T03:35:46.497Z,61.10
2019-05-26T03:36:54.859Z,61.00
2019-05-26T03:38:02.853Z,61.10
2019-05-26T03:39:10.076Z,61.50
2019-05-26T03:40:18.069Z,62.00
2019-05-26T03:41:25.280Z,62.30
2019-05-26T03:42:33.284Z,61.60
2019-05-26T03:43:40.495Z,62.10
2019-05-26T03:44:48.553Z,61.90
2019-05-26T03:46:23.527Z,62.30
2019-05-26T03:47:31.715Z,62.70
2019-05-26T03:48:38.922Z,62.80
2019-05-26T03:49:46.926Z,63.30
2019-05-26T03:50:54.157Z,63.20
2019-05-26T03:52:02.184Z,62.90
2019-05-26T03:53:09.402Z,63.10
2019-05-26T03:54:18.366Z,63.80
2019-05-26T03:55:25.593Z,63.40
2019-05-26T03:56:33.585Z,64.40
2019-05-26T03:57:40.816Z,63.90
2019-05-26T03:58:48.906Z,64.00
2019-05-26T03:59:56.157Z,64.30
2019-05-26T04:01:04.158Z,64.20
2019-05-26T04:02:11.360Z,64.20
2019-05-26T04:03:19.362Z,64.20
2019-05-26T04:04:26.580Z,64.20
2019-05-26T04:05:34.565Z,64.30
2019-05-26T04:06:41.837Z,64.20
2019-05-26T04:07:49.843Z,64.20
2019-05-26T04:08:57.045Z,64.20
2019-05-26T04:10:06.441Z,64.20
2019-05-26T04:11:13.799Z,64.20
2019-05-26T04:12:21.819Z,64.30
2019-05-26T04:13:29.044Z,64.20
2019-05-26T04:14:37.065Z,64.20
2019-05-26T04:15:44.296Z,64.30
2019-05-26T04:16:52.304Z,64.30
2019-05-26T04:17:59.565Z,64.20
2019-05-26T04:19:07.571Z,64.30
2019-05-26T04:20:15.203Z,64.20
2019-05-26T04:21:23.239Z,64.10
2019-05-26T04:22:30.477Z,64.20
2019-05-26T04:23:38.475Z,64.20
2019-05-26T04:24:45.700Z,64.20
2019-05-26T04:25:53.701Z,64.40
2019-05-26T04:27:00.912Z,64.70
2019-05-26T04:28:08.902Z,65.00
2019-05-26T04:29:16.101Z,64.90
2019-05-26T04:30:24.138Z,65.10
2019-05-26T04:31:31.352Z,65.10
2019-05-26T04:32:39.339Z,65.30
2019-05-26T04:33:46.557Z,65.40
2019-05-26T04:34:54.556Z,65.40
2019-05-26T04:36:01.783Z,65.40
2019-05-26T04:37:09.799Z,65.50
2019-05-26T04:38:17.025Z,65.50
2019-05-26T04:39:25.023Z,65.50
2019-05-26T04:40:32.235Z,65.60
2019-05-26T04:41:40.252Z,65.50
2019-05-26T04:42:47.547Z,65.80
2019-05-26T04:43:55.625Z,66.00
2019-05-26T04:45:02.838Z,66.10
2019-05-26T04:46:10.861Z,66.30
2019-05-26T04:47:18.083Z,66.40
2019-05-26T04:48:26.263Z,66.30
2019-05-26T04:49:37.274Z,67.20
2019-05-26T04:50:43.176Z,66.50
2019-05-26T04:51:50.413Z,66.60
2019-05-26T04:53:06.158Z,66.50
2019-05-26T04:54:07.514Z,66.50
2019-05-26T04:55:15.725Z,66.60
2019-05-26T04:56:23.897Z,66.60
2019-05-26T04:57:31.918Z,66.70
2019-05-26T04:58:39.120Z,66.90
2019-05-26T04:59:47.137Z,66.80
2019-05-26T05:00:54.349Z,66.90
2019-05-26T05:02:02.354Z,66.90
2019-05-26T05:03:09.577Z,67.00
2019-05-26T05:04:17.582Z,67.10
2019-05-26T05:05:24.826Z,67.30
2019-05-26T05:06:32.817Z,67.30
2019-05-26T05:07:40.030Z,67.50
2019-05-26T05:08:48.023Z,67.50
2019-05-26T05:09:55.227Z,67.40
2019-05-26T05:11:03.248Z,67.40
2019-05-26T05:12:10.557Z,67.60
2019-05-26T05:13:18.555Z,67.70
2019-05-26T05:14:25.784Z,67.90
2019-05-26T05:15:33.787Z,68.10
2019-05-26T05:16:41.001Z,68.00
2019-05-26T05:17:49.005Z,68.10
2019-05-26T05:18:56.232Z,68.30
2019-05-26T05:20:04.226Z,68.40
2019-05-26T05:21:11.436Z,68.60
2019-05-26T05:22:19.441Z,68.50
2019-05-26T05:23:26.668Z,68.90
2019-05-26T05:24:34.671Z,69.00
2019-05-26T05:25:41.885Z,68.80
2019-05-26T05:26:50.164Z,68.90
2019-05-26T05:27:57.385Z,69.20
2019-05-26T05:29:05.540Z,69.10
2019-05-26T05:30:13.367Z,69.30
2019-05-26T05:31:21.360Z,69.90
2019-05-26T05:32:32.848Z,69.40
2019-05-26T05:33:39.336Z,69.20
2019-05-26T05:34:47.649Z,69.20
2019-05-26T05:35:55.753Z,69.20
2019-05-26T05:37:02.952Z,69.30
2019-05-26T05:38:10.970Z,69.10
2019-05-26T05:39:18.169Z,69.60
2019-05-26T05:40:26.187Z,69.80
2019-05-26T05:41:33.399Z,69.80
2019-05-26T05:42:41.394Z,69.70
2019-05-26T05:43:48.616Z,69.90
2019-05-26T05:44:56.622Z,69.90
2019-05-26T05:46:03.847Z,70.00
2019-05-26T05:47:11.841Z,69.90
2019-05-26T05:48:19.053Z,69.90
2019-05-26T05:49:27.055Z,70.30
2019-05-26T05:50:34.254Z,70.80
2019-05-26T05:51:42.303Z,70.50
2019-05-26T05:52:49.546Z,70.60
2019-05-26T05:53:57.574Z,70.70
2019-05-26T05:55:05.108Z,70.60
2019-05-26T05:56:13.122Z,70.60
2019-05-26T05:57:20.388Z,70.60
2019-05-26T05:58:28.447Z,70.70
2019-05-26T05:59:35.726Z,70.80
2019-05-26T06:00:44.153Z,70.90
2019-05-26T06:01:51.364Z,70.90
2019-05-26T06:02:59.369Z,71.10
2019-05-26T06:04:06.881Z,71.00
2019-05-26T06:05:15.397Z,71.10
2019-05-26T06:06:22.608Z,70.60
2019-05-26T06:07:30.635Z,71.00
2019-05-26T06:08:37.826Z,71.10
2019-05-26T06:09:45.821Z,71.10
2019-05-26T06:10:53.042Z,70.90
2019-05-26T06:12:01.243Z,70.90
2019-05-26T06:13:08.469Z,71.00
2019-05-26T06:14:16.460Z,71.30
2019-05-26T06:15:23.687Z,71.00
2019-05-26T06:16:31.741Z,70.50
2019-05-26T06:17:38.963Z,70.50
2019-05-26T06:18:46.969Z,70.70
2019-05-26T06:19:54.180Z,71.00
2019-05-26T06:21:02.173Z,71.20
2019-05-26T06:22:09.475Z,71.80
2019-05-26T06:23:17.478Z,70.80
2019-05-26T06:24:24.691Z,70.90
2019-05-26T06:25:32.688Z,70.80
2019-05-26T06:26:39.877Z,70.80
2019-05-26T06:27:48.281Z,70.80
2019-05-26T06:28:55.485Z,70.90
2019-05-26T06:30:03.595Z,70.90
2019-05-26T06:31:10.804Z,71.00
2019-05-26T06:32:18.840Z,71.00
2019-05-26T06:33:26.036Z,71.60
2019-05-26T06:34:34.073Z,71.30
2019-05-26T06:35:41.380Z,71.40
2019-05-26T06:36:49.414Z,71.30
2019-05-26T06:37:56.664Z,71.30
2019-05-26T06:39:05.890Z,71.30
2019-05-26T06:40:13.745Z,71.50
2019-05-26T06:41:32.869Z,71.50
2019-05-26T06:42:30.656Z,71.40
2019-05-26T06:43:38.676Z,71.40
2019-05-26T06:44:53.316Z,71.50
2019-05-26T06:45:55.671Z,71.40
2019-05-26T06:47:02.950Z,71.60
2019-05-26T06:48:11.077Z,71.60
2019-05-26T06:49:18.306Z,71.60
2019-05-26T06:50:26.307Z,71.60
2019-05-26T06:51:33.639Z,71.50
2019-05-26T06:52:41.670Z,71.10
2019-05-26T06:53:48.876Z,71.10
2019-05-26T06:54:56.883Z,71.10
2019-05-26T06:56:04.118Z,71.10
2019-05-26T06:57:12.118Z,71.10
2019-05-26T06:58:19.358Z,71.20
2019-05-26T06:59:28.422Z,71.30
2019-05-26T07:00:35.647Z,71.30
2019-05-26T07:01:43.640Z,71.20
2019-05-26T07:02:50.896Z,71.10
2019-05-26T07:03:58.901Z,71.10
2019-05-26T07:05:07.058Z,71.30
2019-05-26T07:06:15.053Z,70.80
2019-05-26T07:07:22.275Z,72.00
2019-05-26T07:08:30.286Z,71.00
2019-05-26T07:09:37.523Z,71.00
2019-05-26T07:10:45.529Z,71.20
2019-05-26T07:11:59.608Z,70.80
2019-05-26T07:13:02.444Z,70.20
2019-05-26T07:14:09.682Z,70.00
2019-05-26T07:15:20.306Z,69.60
2019-05-26T07:16:37.511Z,69.70
2019-05-26T07:17:37.231Z,69.70
2019-05-26T07:18:44.436Z,69.70
2019-05-26T07:19:52.450Z,69.90
2019-05-26T07:20:59.668Z,69.90
2019-05-26T07:22:07.775Z,70.00
2019-05-26T07:23:14.991Z,69.80
2019-05-26T07:24:23.005Z,69.70
2019-05-26T07:25:30.223Z,69.70
2019-05-26T07:26:38.275Z,69.70
2019-05-26T07:27:45.473Z,69.30
2019-05-26T07:28:54.558Z,69.20
2019-05-26T07:30:01.860Z,69.10
2019-05-26T07:31:10.135Z,69.20
2019-05-26T07:32:17.360Z,69.20
2019-05-26T07:33:25.397Z,69.60
2019-05-26T07:34:32.637Z,69.50
2019-05-26T07:35:40.674Z,69.40
2019-05-26T07:36:47.903Z,69.70
2019-05-26T07:37:55.942Z,69.80
2019-05-26T07:39:03.193Z,69.70
2019-05-26T07:40:11.829Z,69.30
2019-05-26T07:41:19.089Z,70.00
2019-05-26T07:42:27.111Z,70.10
2019-05-26T07:43:34.333Z,70.00
2019-05-26T07:44:42.338Z,69.90
2019-05-26T07:45:49.557Z,69.60
2019-05-26T07:46:57.572Z,69.70
2019-05-26T07:48:04.874Z,69.30
2019-05-26T07:49:12.878Z,69.10
2019-05-26T07:50:20.137Z,68.90
2019-05-26T07:51:28.170Z,68.90
2019-05-26T07:52:35.411Z,68.90
2019-05-26T07:53:43.427Z,69.00
2019-05-26T07:54:50.738Z,69.10
2019-05-26T07:55:58.756Z,69.40
2019-05-26T07:57:06.089Z,69.20
2019-05-26T07:58:14.094Z,69.10
2019-05-26T07:59:21.332Z,68.90
2019-05-26T08:00:30.159Z,68.80
2019-05-26T08:01:37.409Z,68.70
2019-05-26T08:02:45.384Z,68.80
2019-05-26T08:03:52.598Z,68.90
2019-05-26T08:05:00.600Z,69.30
2019-05-26T08:06:07.871Z,69.60
2019-05-26T08:07:15.907Z,69.50
2019-05-26T08:08:24.092Z,69.30
2019-05-26T08:09:32.129Z,69.10
2019-05-26T08:10:39.371Z,69.20
2019-05-26T08:11:47.378Z,69.30
2019-05-26T08:12:54.620Z,69.40
2019-05-26T08:14:02.641Z,69.50
2019-05-26T08:15:10.753Z,69.10
2019-05-26T08:16:18.757Z,68.80
2019-05-26T08:17:25.981Z,68.80
2019-05-26T08:18:33.987Z,68.50
2019-05-26T08:19:41.279Z,68.90
2019-05-26T08:20:50.255Z,68.90
2019-05-26T08:21:57.483Z,68.70
2019-05-26T08:23:05.488Z,68.40
2019-05-26T08:24:12.716Z,67.50
2019-05-26T08:25:20.840Z,67.20
2019-05-26T08:26:28.051Z,66.40
2019-05-26T08:27:36.032Z,66.20
2019-05-26T08:28:43.237Z,65.70
2019-05-26T08:29:51.253Z,65.30
2019-05-26T08:30:58.475Z,64.90
2019-05-26T08:32:06.478Z,64.20
2019-05-26T08:33:13.691Z,64.10
2019-05-26T08:34:21.704Z,64.00
2019-05-26T08:35:28.906Z,63.20
2019-05-26T08:36:36.901Z,62.60
2019-05-26T08:37:44.107Z,62.30
2019-05-26T08:38:52.129Z,62.30
2019-05-26T08:40:18.234Z,62.00
2019-05-26T08:41:27.593Z,61.70
2019-05-26T08:42:44.053Z,61.80
2019-05-26T08:43:44.542Z,61.90
2019-05-26T08:44:51.782Z,61.70
2019-05-26T08:45:59.761Z,61.80
2019-05-26T08:47:06.973Z,61.70
2019-05-26T08:48:14.992Z,61.80
2019-05-26T08:49:22.255Z,61.30
2019-05-26T08:50:33.946Z,61.10
2019-05-26T08:51:39.190Z,60.60
2019-05-26T08:52:47.245Z,60.40
2019-05-26T08:53:54.467Z,60.50
2019-05-26T08:55:02.489Z,60.80
2019-05-26T08:56:09.715Z,61.10
2019-05-26T08:57:17.785Z,61.30
2019-05-26T08:58:24.980Z,60.90
2019-05-26T08:59:33.004Z,61.30
2019-05-26T09:00:40.228Z,60.60
2019-05-26T09:01:48.215Z,60.10
2019-05-26T09:02:55.444Z,60.50
2019-05-26T09:04:03.451Z,60.30
2019-05-26T09:05:11.094Z,60.20
2019-05-26T09:06:19.090Z,59.90
2019-05-26T09:07:26.299Z,59.80
2019-05-26T09:08:34.318Z,59.80
2019-05-26T09:09:41.529Z,59.10
2019-05-26T09:10:49.565Z,59.30
2019-05-26T09:11:56.801Z,59.00
2019-05-26T09:13:04.816Z,58.80
2019-05-26T09:14:12.055Z,58.90
2019-05-26T09:15:21.206Z,58.90
2019-05-26T09:16:28.396Z,58.30
2019-05-26T09:17:36.509Z,58.20
2019-05-26T09:18:43.733Z,58.00
2019-05-26T09:19:51.754Z,57.30
2019-05-26T09:20:58.980Z,56.50
2019-05-26T09:22:07.049Z,56.70
2019-05-26T09:23:14.242Z,56.20
2019-05-26T09:24:22.252Z,56.10
2019-05-26T09:25:29.510Z,56.10
2019-05-26T09:26:37.488Z,56.10
2019-05-26T09:27:44.755Z,56.00
2019-05-26T09:28:52.764Z,56.00
2019-05-26T09:30:00.001Z,56.00
2019-05-26T09:31:08.034Z,56.00
2019-05-26T09:32:15.412Z,56.20
2019-05-26T09:33:23.448Z,56.30
2019-05-26T09:34:30.672Z,55.70
2019-05-26T09:35:38.666Z,55.60
2019-05-26T09:36:45.862Z,55.20
2019-05-26T09:37:53.869Z,55.10
2019-05-26T09:39:01.077Z,55.30
2019-05-26T09:40:11.401Z,55.20
2019-05-26T09:41:18.603Z,55.00
2019-05-26T09:42:26.615Z,55.50
2019-05-26T09:43:33.837Z,55.20
2019-05-26T09:44:41.847Z,54.90
2019-05-26T09:45:49.038Z,54.90
2019-05-26T09:46:57.029Z,54.90
2019-05-26T09:48:04.271Z,54.90
2019-05-26T09:49:12.278Z,54.50
2019-05-26T09:50:21.303Z,54.40
2019-05-26T09:51:29.389Z,53.90
2019-05-26T09:52:36.623Z,53.70
2019-05-26T09:53:44.632Z,53.60
2019-05-26T09:54:51.886Z,53.40
2019-05-26T09:55:59.925Z,53.10
2019-05-26T09:57:07.181Z,53.00
2019-05-26T09:58:15.183Z,52.60
2019-05-26T09:59:22.411Z,52.50
2019-05-26T10:00:30.645Z,52.90
2019-05-26T10:01:37.927Z,52.80
2019-05-26T10:02:45.943Z,53.30
2019-05-26T10:03:53.173Z,53.40
2019-05-26T10:05:01.166Z,52.90
2019-05-26T10:06:08.573Z,52.40
2019-05-26T10:07:16.630Z,52.30
2019-05-26T10:08:23.831Z,52.00
2019-05-26T10:09:31.870Z,51.90
2019-05-26T10:10:39.082Z,51.80
2019-05-26T10:11:47.086Z,51.30
2019-05-26T10:12:54.309Z,51.20
2019-05-26T10:14:02.361Z,50.70
2019-05-26T10:15:11.687Z,50.70
2019-05-26T10:16:19.663Z,50.70
2019-05-26T10:17:26.949Z,50.70
2019-05-26T10:18:36.128Z,50.80
2019-05-26T10:19:43.322Z,50.90
2019-05-26T10:20:51.326Z,50.90
2019-05-26T10:21:58.600Z,50.80
2019-05-26T10:23:06.761Z,50.90
2019-05-26T10:24:13.982Z,50.30
2019-05-26T10:25:21.989Z,50.40
2019-05-26T10:26:29.226Z,50.30
2019-05-26T10:27:37.266Z,50.30
2019-05-26T10:28:44.481Z,50.60
2019-05-26T10:29:52.600Z,50.40
2019-05-26T10:30:59.873Z,50.60
2019-05-26T10:32:08.105Z,50.60
2019-05-26T10:33:16.308Z,50.70
2019-05-26T10:34:24.294Z,50.80
2019-05-26T10:35:31.658Z,50.30
2019-05-26T10:36:39.741Z,49.90
2019-05-26T10:37:46.961Z,49.80
2019-05-26T10:38:55.030Z,50.00
2019-05-26T10:40:02.319Z,49.40
2019-05-26T10:41:10.413Z,50.00
2019-05-26T10:42:17.620Z,49.50
2019-05-26T10:43:25.656Z,48.90
2019-05-26T10:44:32.856Z,49.40
2019-05-26T10:45:40.832Z,49.40
2019-05-26T10:46:48.054Z,50.00
2019-05-26T10:47:56.222Z,50.40
2019-05-26T10:49:03.591Z,49.00
2019-05-26T10:50:12.420Z,48.10
2019-05-26T10:51:19.647Z,48.00
2019-05-26T10:52:27.875Z,49.00
2019-05-26T10:53:35.099Z,48.40
2019-05-26T10:54:43.131Z,48.10
2019-05-26T10:55:50.353Z,48.00
2019-05-26T10:56:58.383Z,46.90
2019-05-26T10:58:05.806Z,46.90
2019-05-26T10:59:13.780Z,47.30
2019-05-26T11:00:21.876Z,47.00
2019-05-26T11:01:29.884Z,47.40
2019-05-26T11:02:37.108Z,47.90
2019-05-26T11:03:45.099Z,47.40
2019-05-26T11:04:52.310Z,47.20
2019-05-26T11:06:00.375Z,47.00
2019-05-26T11:07:07.621Z,46.80
2019-05-26T11:08:15.624Z,46.80
2019-05-26T11:09:22.835Z,46.80
2019-05-26T11:10:30.855Z,46.30
2019-05-26T11:11:38.216Z,46.40
2019-05-26T11:12:46.208Z,46.30
2019-05-26T11:14:02.574Z,47.20
2019-05-26T11:15:03.165Z,47.50
2019-05-26T11:16:10.468Z,47.00
2019-05-26T11:17:18.506Z,47.50
2019-05-26T11:18:25.714Z,46.80
2019-05-26T11:19:33.718Z,47.00
2019-05-26T11:20:40.984Z,47.30
2019-05-26T11:21:48.969Z,47.40
2019-05-26T11:22:56.179Z,47.70
2019-05-26T11:24:04.216Z,47.80
2019-05-26T11:25:12.145Z,47.50
2019-05-26T11:26:20.167Z,47.20
2019-05-26T11:27:27.377Z,47.00
2019-05-26T11:28:35.455Z,46.90
2019-05-26T11:29:42.697Z,47.00
2019-05-26T11:30:50.769Z,47.10
2019-05-26T11:31:58.037Z,46.50
2019-05-26T11:33:06.163Z,46.50
2019-05-26T11:34:13.389Z,47.20
2019-05-26T11:35:23.094Z,46.60
2019-05-26T11:36:30.313Z,46.20
2019-05-26T11:37:38.309Z,46.50
2019-05-26T11:38:45.534Z,46.70
2019-05-26T11:39:53.582Z,46.40
2019-05-26T11:41:00.898Z,46.30
2019-05-26T11:42:13.171Z,46.30
2019-05-26T11:43:18.942Z,46.00
2019-05-26T11:44:26.929Z,45.70
2019-05-26T11:45:34.153Z,45.60
2019-05-26T11:46:42.193Z,45.20
2019-05-26T11:47:49.429Z,45.40
2019-05-26T11:48:57.483Z,45.50
2019-05-26T11:50:04.950Z,45.40
2019-05-26T11:51:12.989Z,45.30
2019-05-26T11:52:20.492Z,44.90
2019-05-26T11:53:28.537Z,44.70
2019-05-26T11:54:35.804Z,44.60
2019-05-26T11:55:44.092Z,44.60
2019-05-26T11:56:51.304Z,44.90
2019-05-26T11:57:59.341Z,44.30
2019-05-26T11:59:06.656Z,45.10
2019-05-26T12:00:18.097Z,45.20
2019-05-26T12:01:25.339Z,44.70
2019-05-26T12:02:33.344Z,44.70
2019-05-26T12:03:40.599Z,44.40
2019-05-26T12:04:48.607Z,44.60
2019-05-26T12:05:55.816Z,44.70
2019-05-26T12:07:04.594Z,44.30
2019-05-26T12:08:11.889Z,44.50
2019-05-26T12:09:19.942Z,45.00
2019-05-26T12:10:27.541Z,45.40
2019-05-26T12:11:35.577Z,44.60
2019-05-26T12:12:42.833Z,43.90
2019-05-26T12:13:50.823Z,43.80
2019-05-26T12:14:58.070Z,43.10
2019-05-26T12:16:07.154Z,43.60
2019-05-26T12:17:14.365Z,43.50
2019-05-26T12:18:23.434Z,43.80
2019-05-26T12:19:30.648Z,43.40
2019-05-26T12:20:38.654Z,43.30
2019-05-26T12:21:45.876Z,44.10
2019-05-26T12:22:53.884Z,43.00
2019-05-26T12:24:01.123Z,42.70
2019-05-26T12:25:09.639Z,42.90
2019-05-26T12:26:16.867Z,42.60
2019-05-26T12:27:24.889Z,42.50
2019-05-26T12:28:32.112Z,42.00
2019-05-26T12:29:40.149Z,42.20
2019-05-26T12:30:48.441Z,41.60
2019-05-26T12:31:56.463Z,41.30
2019-05-26T12:33:03.702Z,41.00
2019-05-26T12:34:11.786Z,41.20
2019-05-26T12:35:20.420Z,41.50
2019-05-26T12:36:28.455Z,41.50
2019-05-26T12:37:35.696Z,40.70
2019-05-26T12:38:52.748Z,40.70
2019-05-26T12:39:59.975Z,40.20
2019-05-26T12:41:07.981Z,40.80
2019-05-26T12:42:17.084Z,40.30
2019-05-26T12:43:25.211Z,40.30
2019-05-26T12:44:32.435Z,40.40
2019-05-26T12:45:40.430Z,40.50
2019-05-26T12:46:47.651Z,40.50
2019-05-26T12:47:55.658Z,40.90
2019-05-26T12:49:02.883Z,40.70
2019-05-26T12:50:11.807Z,40.50
2019-05-26T12:51:19.257Z,39.70
2019-05-26T12:52:27.247Z,39.20
2019-05-26T12:53:34.497Z,39.60
2019-05-26T12:54:42.495Z,39.10
2019-05-26T12:55:49.691Z,39.30
2019-05-26T12:56:57.697Z,38.80
2019-05-26T12:58:05.383Z,39.20
2019-05-26T12:59:13.398Z,38.80
2019-05-26T13:00:21.360Z,38.80
2019-05-26T13:01:29.436Z,38.70
2019-05-26T13:02:36.645Z,38.60
2019-05-26T13:03:44.642Z,38.40
2019-05-26T13:04:51.851Z,38.70
2019-05-26T13:05:59.884Z,39.20
2019-05-26T13:07:07.190Z,38.70
2019-05-26T13:08:16.242Z,38.30
2019-05-26T13:09:23.453Z,38.50
2019-05-26T13:10:31.460Z,38.20
2019-05-26T13:11:38.700Z,38.50
2019-05-26T13:12:46.707Z,39.00
2019-05-26T13:13:53.920Z,39.30
2019-05-26T13:15:05.814Z,39.70
2019-05-26T13:16:12.121Z,39.60
2019-05-26T13:17:20.126Z,39.70
2019-05-26T13:18:27.356Z,39.70
2019-05-26T13:19:35.388Z,39.10
2019-05-26T13:20:42.601Z,38.70
2019-05-26T13:21:50.591Z,38.20
2019-05-26T13:22:57.788Z,38.50
2019-05-26T13:24:07.132Z,38.50
2019-05-26T13:25:15.779Z,38.30
2019-05-26T13:27:05.479Z,38.60
2019-05-26T13:28:13.538Z,38.90
2019-05-26T13:29:20.801Z,39.60
2019-05-26T13:30:29.019Z,39.10
2019-05-26T13:31:36.245Z,38.70
2019-05-26T13:32:44.252Z,38.50
2019-05-26T13:33:51.459Z,38.30
2019-05-26T13:34:59.452Z,38.20
2019-05-26T13:36:06.888Z,38.10
2019-05-26T13:37:14.899Z,37.50
2019-05-26T13:38:22.105Z,37.80
2019-05-26T13:39:30.099Z,37.90
2019-05-26T13:40:37.293Z,38.10
2019-05-26T13:41:45.296Z,38.20
2019-05-26T13:42:52.630Z,38.20
2019-05-26T13:44:00.679Z,39.00
2019-05-26T13:45:21.243Z,39.10
2019-05-26T13:46:18.447Z,38.90
2019-05-26T13:47:26.669Z,38.70
2019-05-26T13:48:34.818Z,38.20
2019-05-26T13:49:42.033Z,37.70
2019-05-26T13:50:50.021Z,38.50
2019-05-26T13:51:57.253Z,37.90
2019-05-26T13:53:05.342Z,38.30
2019-05-26T13:54:12.573Z,38.30
2019-05-26T13:55:21.162Z,38.20
2019-05-26T13:56:28.595Z,38.20
2019-05-26T13:57:36.590Z,38.70
2019-05-26T13:58:43.868Z,38.60
2019-05-26T13:59:51.880Z,38.00
2019-05-26T14:00:59.119Z,38.00
2019-05-26T14:02:07.730Z,37.40
2019-05-26T14:03:14.967Z,37.90
2019-05-26T14:04:22.995Z,37.00
2019-05-26T14:05:30.214Z,36.90
2019-05-26T14:06:38.285Z,37.00
2019-05-26T14:07:45.493Z,37.30
2019-05-26T14:08:53.503Z,37.50
2019-05-26T14:10:00.709Z,37.40
2019-05-26T14:11:08.715Z,37.40
2019-05-26T14:12:15.940Z,37.10
2019-05-26T14:13:23.949Z,37.10
2019-05-26T14:14:31.158Z,36.70
2019-05-26T14:15:39.551Z,36.70
2019-05-26T14:16:49.495Z,36.40
2019-05-26T14:17:57.802Z,36.70
2019-05-26T14:19:06.530Z,36.80
2019-05-26T14:20:19.549Z,36.50
2019-05-26T14:21:26.758Z,36.70
2019-05-26T14:22:34.776Z,36.70
2019-05-26T14:23:42.018Z,36.60
2019-05-26T14:24:53.872Z,36.70
2019-05-26T14:25:58.975Z,36.70
2019-05-26T14:27:07.039Z,37.20
2019-05-26T14:28:14.241Z,37.10
2019-05-26T14:29:22.264Z,37.40
2019-05-26T14:30:29.532Z,37.90
2019-05-26T14:31:37.567Z,37.70
2019-05-26T14:32:44.777Z,37.90
2019-05-26T14:33:52.785Z,37.30
2019-05-26T14:35:00.010Z,37.10